sensor_id;sensor_type;location;lat;lon;timestamp;temperature;humidity
10968;DHT22;5536;49.602;10.980;2022-07-29T00:00:29;21.40;99.90
10968;DHT22;5536;49.602;10.980;2022-07-29T00:02:56;21.40;99.90
10968;DHT22;5536;49.602;10.980;2022-07-29T00:05:23;21.40;99.90
10968;DHT22;5536;49.602;10.980;2022-07-29T00:07:50;21.40;99.90
10968;DHT22;5536;49.602;10.980;2022-07-29T00:10:17;21.50;99.90
10968;DHT22;5536;49.602;10.980;2022-07-29T00:12:46;21.50;99.90
10968;DHT22;5536;49.602;10.980;2022-07-29T00:15:14;21.60;99.90
10968;DHT22;5536;49.602;10.980;2022-07-29T00:17:41;21.60;99.90
10968;DHT22;5536;49.602;10.980;2022-07-29T00:20:09;21.60;99.90
10968;DHT22;5536;49.602;10.980;2022-07-29T00:22:37;21.70;99.90
10968;DHT22;5536;49.602;10.980;2022-07-29T00:25:05;21.70;99.90
10968;DHT22;5536;49.602;10.980;2022-07-29T00:27:33;21.70;99.90
10968;DHT22;5536;49.602;10.980;2022-07-29T00:30:02;21.70;99.90
10968;DHT22;5536;49.602;10.980;2022-07-29T00:32:29;21.70;99.90
10968;DHT22;5536;49.602;10.980;2022-07-29T00:34:57;21.70;99.90
10968;DHT22;5536;49.602;10.980;2022-07-29T00:37:41;21.70;99.90
10968;DHT22;5536;49.602;10.980;2022-07-29T00:40:09;21.70;99.90
10968;DHT22;5536;49.602;10.980;2022-07-29T00:42:42;21.70;99.90
10968;DHT22;5536;49.602;10.980;2022-07-29T00:45:11;21.80;99.90
10968;DHT22;5536;49.602;10.980;2022-07-29T00:47:38;21.80;99.90
10968;DHT22;5536;49.602;10.980;2022-07-29T00:50:07;21.80;99.90
10968;DHT22;5536;49.602;10.980;2022-07-29T00:52:37;21.80;99.90
10968;DHT22;5536;49.602;10.980;2022-07-29T00:55:06;21.80;99.90
10968;DHT22;5536;49.602;10.980;2022-07-29T00:57:34;21.80;99.90
10968;DHT22;5536;49.602;10.980;2022-07-29T01:00:01;21.80;99.90
10968;DHT22;5536;49.602;10.980;2022-07-29T01:02:30;21.80;99.90
10968;DHT22;5536;49.602;10.980;2022-07-29T01:04:57;21.90;99.90
10968;DHT22;5536;49.602;10.980;2022-07-29T01:07:25;21.90;99.90
10968;DHT22;5536;49.602;10.980;2022-07-29T01:09:53;22.00;99.90
10968;DHT22;5536;49.602;10.980;2022-07-29T01:12:24;22.00;99.90
10968;DHT22;5536;49.602;10.980;2022-07-29T01:14:52;22.00;99.90
10968;DHT22;5536;49.602;10.980;2022-07-29T01:17:24;21.90;99.90
10968;DHT22;5536;49.602;10.980;2022-07-29T01:19:58;22.00;99.90
10968;DHT22;5536;49.602;10.980;2022-07-29T01:22:35;21.90;99.90
10968;DHT22;5536;49.602;10.980;2022-07-29T01:25:12;21.90;99.90
10968;DHT22;5536;49.602;10.980;2022-07-29T01:27:48;21.80;99.90
10968;DHT22;5536;49.602;10.980;2022-07-29T01:30:22;21.70;99.90
10968;DHT22;5536;49.602;10.980;2022-07-29T01:32:56;21.60;99.90
10968;DHT22;5536;49.602;10.980;2022-07-29T01:35:30;21.50;99.90
10968;DHT22;5536;49.602;10.980;2022-07-29T01:38:05;21.50;99.90
10968;DHT22;5536;49.602;10.980;2022-07-29T01:40:40;21.40;99.90
10968;DHT22;5536;49.602;10.980;2022-07-29T01:43:12;21.50;99.90
10968;DHT22;5536;49.602;10.980;2022-07-29T01:45:46;21.40;99.90
10968;DHT22;5536;49.602;10.980;2022-07-29T01:48:18;21.50;99.90
10968;DHT22;5536;49.602;10.980;2022-07-29T01:50:49;21.30;99.90
10968;DHT22;5536;49.602;10.980;2022-07-29T01:53:26;21.30;99.90
10968;DHT22;5536;49.602;10.980;2022-07-29T01:55:57;21.30;99.90
10968;DHT22;5536;49.602;10.980;2022-07-29T01:58:26;21.20;99.90
10968;DHT22;5536;49.602;10.980;2022-07-29T02:00:57;21.20;99.90
10968;DHT22;5536;49.602;10.980;2022-07-29T02:03:25;21.10;99.90
10968;DHT22;5536;49.602;10.980;2022-07-29T02:05:55;21.00;99.90
10968;DHT22;5536;49.602;10.980;2022-07-29T02:08:24;20.90;99.90
10968;DHT22;5536;49.602;10.980;2022-07-29T02:10:52;20.80;99.90
10968;DHT22;5536;49.602;10.980;2022-07-29T02:13:22;20.70;99.90
10968;DHT22;5536;49.602;10.980;2022-07-29T02:15:51;20.70;99.90
10968;DHT22;5536;49.602;10.980;2022-07-29T02:18:23;20.70;99.90
10968;DHT22;5536;49.602;10.980;2022-07-29T02:20:54;20.80;99.90
10968;DHT22;5536;49.602;10.980;2022-07-29T02:23:24;20.80;99.90
10968;DHT22;5536;49.602;10.980;2022-07-29T02:25:53;20.70;99.90
10968;DHT22;5536;49.602;10.980;2022-07-29T02:28:22;20.70;99.90
10968;DHT22;5536;49.602;10.980;2022-07-29T02:30:52;20.60;99.90
10968;DHT22;5536;49.602;10.980;2022-07-29T02:33:21;20.50;99.90
10968;DHT22;5536;49.602;10.980;2022-07-29T02:35:51;20.50;99.90
10968;DHT22;5536;49.602;10.980;2022-07-29T02:38:20;20.40;99.90
10968;DHT22;5536;49.602;10.980;2022-07-29T02:41:10;20.30;99.90
10968;DHT22;5536;49.602;10.980;2022-07-29T02:43:39;20.20;99.90
10968;DHT22;5536;49.602;10.980;2022-07-29T02:46:13;20.10;99.90
10968;DHT22;5536;49.602;10.980;2022-07-29T02:48:48;20.00;1.00
10968;DHT22;5536;49.602;10.980;2022-07-29T02:51:19;20.00;1.00
10968;DHT22;5536;49.602;10.980;2022-07-29T02:53:53;19.80;1.00
10968;DHT22;5536;49.602;10.980;2022-07-29T02:56:27;19.90;1.00
10968;DHT22;5536;49.602;10.980;2022-07-29T02:58:57;19.70;1.00
10968;DHT22;5536;49.602;10.980;2022-07-29T03:01:30;19.70;1.00
10968;DHT22;5536;49.602;10.980;2022-07-29T03:04:01;19.70;1.00
10968;DHT22;5536;49.602;10.980;2022-07-29T03:06:30;19.80;1.00
10968;DHT22;5536;49.602;10.980;2022-07-29T03:09:00;19.80;1.00
10968;DHT22;5536;49.602;10.980;2022-07-29T03:11:27;19.70;1.00
10968;DHT22;5536;49.602;10.980;2022-07-29T03:13:55;19.70;1.00
10968;DHT22;5536;49.602;10.980;2022-07-29T03:16:23;19.60;1.00
10968;DHT22;5536;49.602;10.980;2022-07-29T03:18:51;19.40;1.00
10968;DHT22;5536;49.602;10.980;2022-07-29T03:21:19;19.20;1.00
10968;DHT22;5536;49.602;10.980;2022-07-29T03:23:47;19.10;1.00
10968;DHT22;5536;49.602;10.980;2022-07-29T03:26:14;18.90;1.00
10968;DHT22;5536;49.602;10.980;2022-07-29T03:28:41;18.90;1.00
10968;DHT22;5536;49.602;10.980;2022-07-29T03:31:08;19.10;1.00
10968;DHT22;5536;49.602;10.980;2022-07-29T03:33:35;19.20;1.00
10968;DHT22;5536;49.602;10.980;2022-07-29T03:36:02;19.30;1.00
10968;DHT22;5536;49.602;10.980;2022-07-29T03:38:33;19.20;1.00
10968;DHT22;5536;49.602;10.980;2022-07-29T03:41:05;19.20;1.00
10968;DHT22;5536;49.602;10.980;2022-07-29T03:43:37;19.00;1.00
10968;DHT22;5536;49.602;10.980;2022-07-29T03:46:07;18.90;1.00
10968;DHT22;5536;49.602;10.980;2022-07-29T03:48:39;19.00;1.00
10968;DHT22;5536;49.602;10.980;2022-07-29T03:51:09;19.20;1.00
10968;DHT22;5536;49.602;10.980;2022-07-29T03:53:38;19.20;1.00
10968;DHT22;5536;49.602;10.980;2022-07-29T03:56:06;19.20;1.00
10968;DHT22;5536;49.602;10.980;2022-07-29T03:58:34;19.30;1.00
10968;DHT22;5536;49.602;10.980;2022-07-29T04:01:02;19.10;1.00
10968;DHT22;5536;49.602;10.980;2022-07-29T04:03:29;19.20;1.00
10968;DHT22;5536;49.602;10.980;2022-07-29T04:06:02;19.10;1.00
10968;DHT22;5536;49.602;10.980;2022-07-29T04:08:31;19.20;1.00
10968;DHT22;5536;49.602;10.980;2022-07-29T04:10:59;19.20;1.00
10968;DHT22;5536;49.602;10.980;2022-07-29T04:13:27;19.10;1.00
10968;DHT22;5536;49.602;10.980;2022-07-29T04:15:54;19.00;1.00
10968;DHT22;5536;49.602;10.980;2022-07-29T04:18:21;18.90;1.00
10968;DHT22;5536;49.602;10.980;2022-07-29T04:20:49;18.90;1.00
10968;DHT22;5536;49.602;10.980;2022-07-29T04:23:16;19.00;1.00
10968;DHT22;5536;49.602;10.980;2022-07-29T04:25:43;19.00;83.10
10968;DHT22;5536;49.602;10.980;2022-07-29T04:28:12;18.80;1.00
10968;DHT22;5536;49.602;10.980;2022-07-29T04:30:39;18.80;5.90
10968;DHT22;5536;49.602;10.980;2022-07-29T04:33:07;19.00;1.00
10968;DHT22;5536;49.602;10.980;2022-07-29T04:35:36;19.00;20.70
10968;DHT22;5536;49.602;10.980;2022-07-29T04:38:04;18.90;44.00
10968;DHT22;5536;49.602;10.980;2022-07-29T04:40:31;18.90;99.90
10968;DHT22;5536;49.602;10.980;2022-07-29T04:42:59;19.00;99.90
10968;DHT22;5536;49.602;10.980;2022-07-29T04:45:28;19.00;99.90
10968;DHT22;5536;49.602;10.980;2022-07-29T04:47:56;19.00;1.00
10968;DHT22;5536;49.602;10.980;2022-07-29T04:50:23;19.00;99.90
10968;DHT22;5536;49.602;10.980;2022-07-29T04:52:50;19.00;99.90
10968;DHT22;5536;49.602;10.980;2022-07-29T04:55:17;19.00;1.00
10968;DHT22;5536;49.602;10.980;2022-07-29T04:57:45;19.00;1.00
10968;DHT22;5536;49.602;10.980;2022-07-29T05:00:13;19.00;1.00
10968;DHT22;5536;49.602;10.980;2022-07-29T05:02:42;19.00;99.90
10968;DHT22;5536;49.602;10.980;2022-07-29T05:05:10;19.20;13.70
10968;DHT22;5536;49.602;10.980;2022-07-29T05:07:37;19.20;99.90
10968;DHT22;5536;49.602;10.980;2022-07-29T05:10:05;19.10;28.50
10968;DHT22;5536;49.602;10.980;2022-07-29T05:12:32;19.00;99.90
10968;DHT22;5536;49.602;10.980;2022-07-29T05:14:59;19.00;1.00
10968;DHT22;5536;49.602;10.980;2022-07-29T05:17:26;19.10;1.00
10968;DHT22;5536;49.602;10.980;2022-07-29T05:19:55;19.20;1.00
10968;DHT22;5536;49.602;10.980;2022-07-29T05:22:23;19.30;1.00
10968;DHT22;5536;49.602;10.980;2022-07-29T05:24:50;19.30;99.90
10968;DHT22;5536;49.602;10.980;2022-07-29T05:27:17;19.30;1.00
10968;DHT22;5536;49.602;10.980;2022-07-29T05:29:44;19.30;1.00
10968;DHT22;5536;49.602;10.980;2022-07-29T05:32:11;19.40;1.00
10968;DHT22;5536;49.602;10.980;2022-07-29T05:34:39;19.50;1.00
10968;DHT22;5536;49.602;10.980;2022-07-29T05:37:08;19.50;1.00
10968;DHT22;5536;49.602;10.980;2022-07-29T05:39:35;19.50;99.90
10968;DHT22;5536;49.602;10.980;2022-07-29T05:42:02;19.50;99.90
10968;DHT22;5536;49.602;10.980;2022-07-29T05:44:29;19.50;99.90
10968;DHT22;5536;49.602;10.980;2022-07-29T05:46:56;19.50;99.90
10968;DHT22;5536;49.602;10.980;2022-07-29T05:49:23;19.50;99.90
10968;DHT22;5536;49.602;10.980;2022-07-29T05:51:51;19.50;99.90
10968;DHT22;5536;49.602;10.980;2022-07-29T05:54:20;19.50;99.90
10968;DHT22;5536;49.602;10.980;2022-07-29T05:56:50;19.50;99.90
10968;DHT22;5536;49.602;10.980;2022-07-29T05:59:20;19.50;99.90
10968;DHT22;5536;49.602;10.980;2022-07-29T06:01:47;19.60;99.90
10968;DHT22;5536;49.602;10.980;2022-07-29T06:04:14;19.60;99.90
10968;DHT22;5536;49.602;10.980;2022-07-29T06:06:44;19.70;99.90
10968;DHT22;5536;49.602;10.980;2022-07-29T06:09:11;19.90;99.90
10968;DHT22;5536;49.602;10.980;2022-07-29T06:11:39;20.10;99.90
10968;DHT22;5536;49.602;10.980;2022-07-29T06:14:07;20.20;1.00
10968;DHT22;5536;49.602;10.980;2022-07-29T06:16:34;20.30;1.00
10968;DHT22;5536;49.602;10.980;2022-07-29T06:19:01;20.40;1.00
10968;DHT22;5536;49.602;10.980;2022-07-29T06:21:28;20.50;1.00
10968;DHT22;5536;49.602;10.980;2022-07-29T06:23:55;20.50;1.00
10968;DHT22;5536;49.602;10.980;2022-07-29T06:26:23;20.50;1.00
10968;DHT22;5536;49.602;10.980;2022-07-29T06:28:52;20.60;1.00
10968;DHT22;5536;49.602;10.980;2022-07-29T06:31:19;20.70;1.00
10968;DHT22;5536;49.602;10.980;2022-07-29T06:33:47;20.80;1.00
10968;DHT22;5536;49.602;10.980;2022-07-29T06:36:15;20.90;1.00
10968;DHT22;5536;49.602;10.980;2022-07-29T06:38:42;21.10;1.00
10968;DHT22;5536;49.602;10.980;2022-07-29T06:41:09;21.20;1.00
10968;DHT22;5536;49.602;10.980;2022-07-29T06:43:39;21.30;1.00
10968;DHT22;5536;49.602;10.980;2022-07-29T06:46:11;21.40;1.00
10968;DHT22;5536;49.602;10.980;2022-07-29T06:48:38;21.50;1.00
10968;DHT22;5536;49.602;10.980;2022-07-29T06:51:06;21.70;1.00
10968;DHT22;5536;49.602;10.980;2022-07-29T06:53:34;21.70;1.00
10968;DHT22;5536;49.602;10.980;2022-07-29T06:56:02;21.70;1.00
10968;DHT22;5536;49.602;10.980;2022-07-29T06:58:29;21.70;1.00
10968;DHT22;5536;49.602;10.980;2022-07-29T07:00:57;21.70;1.00
10968;DHT22;5536;49.602;10.980;2022-07-29T07:03:26;21.80;1.00
10968;DHT22;5536;49.602;10.980;2022-07-29T07:05:54;21.80;1.00
10968;DHT22;5536;49.602;10.980;2022-07-29T07:08:22;21.90;1.00
10968;DHT22;5536;49.602;10.980;2022-07-29T07:10:49;22.00;1.00
10968;DHT22;5536;49.602;10.980;2022-07-29T07:13:17;22.10;1.00
10968;DHT22;5536;49.602;10.980;2022-07-29T07:15:44;22.10;1.00
10968;DHT22;5536;49.602;10.980;2022-07-29T07:18:13;22.30;1.00
10968;DHT22;5536;49.602;10.980;2022-07-29T07:20:42;22.30;1.00
10968;DHT22;5536;49.602;10.980;2022-07-29T07:23:10;22.30;1.00
10968;DHT22;5536;49.602;10.980;2022-07-29T07:25:40;22.40;1.00
10968;DHT22;5536;49.602;10.980;2022-07-29T07:28:07;22.40;1.00
10968;DHT22;5536;49.602;10.980;2022-07-29T07:30:34;22.50;1.00
10968;DHT22;5536;49.602;10.980;2022-07-29T07:33:02;22.60;1.00
10968;DHT22;5536;49.602;10.980;2022-07-29T07:35:30;22.70;1.00
10968;DHT22;5536;49.602;10.980;2022-07-29T07:37:58;22.70;1.00
10968;DHT22;5536;49.602;10.980;2022-07-29T07:40:25;22.70;1.00
10968;DHT22;5536;49.602;10.980;2022-07-29T07:42:52;22.80;1.00
10968;DHT22;5536;49.602;10.980;2022-07-29T07:45:19;22.90;1.00
10968;DHT22;5536;49.602;10.980;2022-07-29T07:47:47;23.00;1.00
10968;DHT22;5536;49.602;10.980;2022-07-29T07:50:14;23.10;1.00
10968;DHT22;5536;49.602;10.980;2022-07-29T07:52:47;23.20;1.00
10968;DHT22;5536;49.602;10.980;2022-07-29T07:55:17;23.30;1.00
10968;DHT22;5536;49.602;10.980;2022-07-29T07:57:44;23.40;1.00
10968;DHT22;5536;49.602;10.980;2022-07-29T08:00:14;23.60;1.00
10968;DHT22;5536;49.602;10.980;2022-07-29T08:02:41;23.70;1.00
10968;DHT22;5536;49.602;10.980;2022-07-29T08:05:11;23.60;1.00
10968;DHT22;5536;49.602;10.980;2022-07-29T08:07:43;23.70;1.00
10968;DHT22;5536;49.602;10.980;2022-07-29T08:10:11;23.80;1.00
10968;DHT22;5536;49.602;10.980;2022-07-29T08:12:40;23.80;1.00
10968;DHT22;5536;49.602;10.980;2022-07-29T08:15:08;24.10;1.00
10968;DHT22;5536;49.602;10.980;2022-07-29T08:17:35;24.10;1.00
10968;DHT22;5536;49.602;10.980;2022-07-29T08:20:03;24.20;1.00
10968;DHT22;5536;49.602;10.980;2022-07-29T08:22:30;24.30;1.00
10968;DHT22;5536;49.602;10.980;2022-07-29T08:24:58;24.40;1.00
10968;DHT22;5536;49.602;10.980;2022-07-29T08:27:25;24.50;1.00
10968;DHT22;5536;49.602;10.980;2022-07-29T08:29:56;24.60;1.00
10968;DHT22;5536;49.602;10.980;2022-07-29T08:32:24;24.80;1.00
10968;DHT22;5536;49.602;10.980;2022-07-29T08:34:51;24.60;1.00
10968;DHT22;5536;49.602;10.980;2022-07-29T08:37:18;24.80;1.00
10968;DHT22;5536;49.602;10.980;2022-07-29T08:39:45;24.90;1.00
10968;DHT22;5536;49.602;10.980;2022-07-29T08:42:12;25.10;1.00
10968;DHT22;5536;49.602;10.980;2022-07-29T08:44:40;25.30;1.00
10968;DHT22;5536;49.602;10.980;2022-07-29T08:47:09;25.50;1.00
10968;DHT22;5536;49.602;10.980;2022-07-29T08:49:37;25.40;1.00
10968;DHT22;5536;49.602;10.980;2022-07-29T08:52:04;25.40;1.00
10968;DHT22;5536;49.602;10.980;2022-07-29T08:54:32;25.60;1.00
10968;DHT22;5536;49.602;10.980;2022-07-29T08:57:00;25.70;1.00
10968;DHT22;5536;49.602;10.980;2022-07-29T08:59:30;25.40;1.00
10968;DHT22;5536;49.602;10.980;2022-07-29T09:02:01;25.60;1.00
10968;DHT22;5536;49.602;10.980;2022-07-29T09:04:34;25.80;1.00
10968;DHT22;5536;49.602;10.980;2022-07-29T09:07:04;26.10;99.90
10968;DHT22;5536;49.602;10.980;2022-07-29T09:09:33;26.50;99.90
10968;DHT22;5536;49.602;10.980;2022-07-29T09:12:05;26.80;99.90
10968;DHT22;5536;49.602;10.980;2022-07-29T09:14:33;27.10;99.90
10968;DHT22;5536;49.602;10.980;2022-07-29T09:17:04;26.90;99.90
10968;DHT22;5536;49.602;10.980;2022-07-29T09:19:35;27.10;99.90
10968;DHT22;5536;49.602;10.980;2022-07-29T09:22:06;27.30;99.90
10968;DHT22;5536;49.602;10.980;2022-07-29T09:24:43;27.60;99.90
10968;DHT22;5536;49.602;10.980;2022-07-29T09:27:19;27.60;99.90
10968;DHT22;5536;49.602;10.980;2022-07-29T09:29:54;27.50;99.90
10968;DHT22;5536;49.602;10.980;2022-07-29T09:32:22;27.50;99.90
10968;DHT22;5536;49.602;10.980;2022-07-29T09:34:54;27.50;99.90
10968;DHT22;5536;49.602;10.980;2022-07-29T09:37:40;27.60;99.90
10968;DHT22;5536;49.602;10.980;2022-07-29T09:40:12;27.50;99.90
10968;DHT22;5536;49.602;10.980;2022-07-29T09:45:31;27.20;99.90
10968;DHT22;5536;49.602;10.980;2022-07-29T09:48:14;27.20;99.90
10968;DHT22;5536;49.602;10.980;2022-07-29T09:50:45;26.90;99.90
10968;DHT22;5536;49.602;10.980;2022-07-29T09:53:30;26.90;99.90
10968;DHT22;5536;49.602;10.980;2022-07-29T09:55:57;27.00;99.90
10968;DHT22;5536;49.602;10.980;2022-07-29T09:58:24;27.20;99.90
10968;DHT22;5536;49.602;10.980;2022-07-29T10:00:53;27.40;99.90
10968;DHT22;5536;49.602;10.980;2022-07-29T10:03:21;27.50;99.90
10968;DHT22;5536;49.602;10.980;2022-07-29T10:06:07;27.60;99.90
10968;DHT22;5536;49.602;10.980;2022-07-29T10:08:35;27.60;99.90
10968;DHT22;5536;49.602;10.980;2022-07-29T10:11:10;27.80;99.90
10968;DHT22;5536;49.602;10.980;2022-07-29T10:13:38;28.00;99.90
10968;DHT22;5536;49.602;10.980;2022-07-29T10:16:06;28.60;99.90
10968;DHT22;5536;49.602;10.980;2022-07-29T10:18:34;28.70;99.90
10968;DHT22;5536;49.602;10.980;2022-07-29T10:21:01;28.50;99.90
10968;DHT22;5536;49.602;10.980;2022-07-29T10:23:30;28.50;99.90
10968;DHT22;5536;49.602;10.980;2022-07-29T10:25:58;28.30;99.90
10968;DHT22;5536;49.602;10.980;2022-07-29T10:28:25;28.50;99.90
10968;DHT22;5536;49.602;10.980;2022-07-29T10:31:00;28.50;99.90
10968;DHT22;5536;49.602;10.980;2022-07-29T10:33:41;28.70;99.90
10968;DHT22;5536;49.602;10.980;2022-07-29T10:36:32;28.90;99.90
10968;DHT22;5536;49.602;10.980;2022-07-29T10:39:08;28.70;99.90
10968;DHT22;5536;49.602;10.980;2022-07-29T10:41:52;28.30;99.90
10968;DHT22;5536;49.602;10.980;2022-07-29T10:44:23;28.50;99.90
10968;DHT22;5536;49.602;10.980;2022-07-29T10:46:52;28.60;99.90
10968;DHT22;5536;49.602;10.980;2022-07-29T10:49:28;28.70;99.90
10968;DHT22;5536;49.602;10.980;2022-07-29T10:52:00;28.60;99.90
10968;DHT22;5536;49.602;10.980;2022-07-29T10:54:45;28.80;99.90
10968;DHT22;5536;49.602;10.980;2022-07-29T10:57:15;29.00;99.90
10968;DHT22;5536;49.602;10.980;2022-07-29T11:00:29;29.50;99.90
10968;DHT22;5536;49.602;10.980;2022-07-29T11:02:58;29.90;99.90
10968;DHT22;5536;49.602;10.980;2022-07-29T11:05:26;30.20;99.90
10968;DHT22;5536;49.602;10.980;2022-07-29T11:08:21;30.30;99.90
10968;DHT22;5536;49.602;10.980;2022-07-29T11:10:52;30.00;99.90
10968;DHT22;5536;49.602;10.980;2022-07-29T11:13:45;29.70;99.90
10968;DHT22;5536;49.602;10.980;2022-07-29T11:16:13;29.80;99.90
10968;DHT22;5536;49.602;10.980;2022-07-29T11:21:45;29.90;99.90
10968;DHT22;5536;49.602;10.980;2022-07-29T11:24:18;30.30;99.90
10968;DHT22;5536;49.602;10.980;2022-07-29T11:27:15;30.70;99.90
10968;DHT22;5536;49.602;10.980;2022-07-29T11:29:54;31.50;99.90
10968;DHT22;5536;49.602;10.980;2022-07-29T11:32:23;31.20;99.90
10968;DHT22;5536;49.602;10.980;2022-07-29T11:35:10;31.40;99.90
10968;DHT22;5536;49.602;10.980;2022-07-29T11:37:37;31.00;99.90
10968;DHT22;5536;49.602;10.980;2022-07-29T11:40:15;30.80;99.90
10968;DHT22;5536;49.602;10.980;2022-07-29T11:42:52;31.10;99.90
10968;DHT22;5536;49.602;10.980;2022-07-29T11:45:44;31.00;99.90
10968;DHT22;5536;49.602;10.980;2022-07-29T11:48:20;32.10;99.90
10968;DHT22;5536;49.602;10.980;2022-07-29T11:50:54;32.40;99.90
10968;DHT22;5536;49.602;10.980;2022-07-29T11:53:21;32.70;99.90
10968;DHT22;5536;49.602;10.980;2022-07-29T11:55:55;32.50;99.90
10968;DHT22;5536;49.602;10.980;2022-07-29T11:58:25;33.30;99.90
10968;DHT22;5536;49.602;10.980;2022-07-29T12:00:56;34.10;99.90
10968;DHT22;5536;49.602;10.980;2022-07-29T12:03:26;34.20;99.90
10968;DHT22;5536;49.602;10.980;2022-07-29T12:05:54;34.10;99.90
10968;DHT22;5536;49.602;10.980;2022-07-29T12:08:22;33.90;99.90
10968;DHT22;5536;49.602;10.980;2022-07-29T12:10:51;33.80;99.90
10968;DHT22;5536;49.602;10.980;2022-07-29T12:13:23;34.20;99.90
10968;DHT22;5536;49.602;10.980;2022-07-29T12:15:55;34.40;99.90
10968;DHT22;5536;49.602;10.980;2022-07-29T12:18:30;34.70;99.90
10968;DHT22;5536;49.602;10.980;2022-07-29T12:21:06;35.10;99.90
10968;DHT22;5536;49.602;10.980;2022-07-29T12:23:38;35.70;99.90
10968;DHT22;5536;49.602;10.980;2022-07-29T12:26:18;35.50;99.90
10968;DHT22;5536;49.602;10.980;2022-07-29T12:28:47;35.30;99.90
10968;DHT22;5536;49.602;10.980;2022-07-29T12:31:17;35.00;99.90
10968;DHT22;5536;49.602;10.980;2022-07-29T12:33:52;35.60;99.90
10968;DHT22;5536;49.602;10.980;2022-07-29T12:36:20;35.40;99.90
10968;DHT22;5536;49.602;10.980;2022-07-29T12:38:47;35.30;99.90
10968;DHT22;5536;49.602;10.980;2022-07-29T12:41:16;35.30;99.90
10968;DHT22;5536;49.602;10.980;2022-07-29T12:43:53;35.10;99.90
10968;DHT22;5536;49.602;10.980;2022-07-29T12:46:22;34.90;99.90
10968;DHT22;5536;49.602;10.980;2022-07-29T12:48:53;34.40;99.90
10968;DHT22;5536;49.602;10.980;2022-07-29T12:51:35;34.30;99.90
10968;DHT22;5536;49.602;10.980;2022-07-29T12:54:11;34.00;99.90
10968;DHT22;5536;49.602;10.980;2022-07-29T12:57:07;34.50;99.90
10968;DHT22;5536;49.602;10.980;2022-07-29T12:59:42;35.60;99.90
10968;DHT22;5536;49.602;10.980;2022-07-29T13:02:22;36.30;99.90
10968;DHT22;5536;49.602;10.980;2022-07-29T13:05:05;37.50;99.90
10968;DHT22;5536;49.602;10.980;2022-07-29T13:07:37;37.30;99.90
10968;DHT22;5536;49.602;10.980;2022-07-29T13:10:14;37.50;99.90
10968;DHT22;5536;49.602;10.980;2022-07-29T13:13:02;38.30;99.90
10968;DHT22;5536;49.602;10.980;2022-07-29T13:15:35;37.00;99.90
10968;DHT22;5536;49.602;10.980;2022-07-29T13:18:03;35.70;99.90
10968;DHT22;5536;49.602;10.980;2022-07-29T13:20:36;35.70;99.90
10968;DHT22;5536;49.602;10.980;2022-07-29T13:23:09;36.60;99.90
10968;DHT22;5536;49.602;10.980;2022-07-29T13:25:41;37.20;99.90
10968;DHT22;5536;49.602;10.980;2022-07-29T13:28:16;37.20;99.90
10968;DHT22;5536;49.602;10.980;2022-07-29T13:30:45;36.30;99.90
10968;DHT22;5536;49.602;10.980;2022-07-29T13:33:12;37.10;99.90
10968;DHT22;5536;49.602;10.980;2022-07-29T13:35:41;36.70;99.90
10968;DHT22;5536;49.602;10.980;2022-07-29T13:38:07;35.30;99.90
10968;DHT22;5536;49.602;10.980;2022-07-29T13:40:34;34.20;99.90
10968;DHT22;5536;49.602;10.980;2022-07-29T13:43:02;33.60;99.90
10968;DHT22;5536;49.602;10.980;2022-07-29T13:45:29;34.30;99.90
10968;DHT22;5536;49.602;10.980;2022-07-29T13:47:57;34.70;99.90
10968;DHT22;5536;49.602;10.980;2022-07-29T13:50:24;34.70;99.90
10968;DHT22;5536;49.602;10.980;2022-07-29T13:52:51;34.00;99.90
10968;DHT22;5536;49.602;10.980;2022-07-29T13:55:19;32.90;99.90
10968;DHT22;5536;49.602;10.980;2022-07-29T13:57:49;32.10;99.90
10968;DHT22;5536;49.602;10.980;2022-07-29T14:00:23;31.20;99.90
10968;DHT22;5536;49.602;10.980;2022-07-29T14:03:09;30.70;99.90
10968;DHT22;5536;49.602;10.980;2022-07-29T14:05:52;30.60;99.90
10968;DHT22;5536;49.602;10.980;2022-07-29T14:08:22;30.00;99.90
10968;DHT22;5536;49.602;10.980;2022-07-29T14:10:56;29.60;99.90
10968;DHT22;5536;49.602;10.980;2022-07-29T14:13:35;29.30;99.90
10968;DHT22;5536;49.602;10.980;2022-07-29T14:16:16;29.00;99.90
10968;DHT22;5536;49.602;10.980;2022-07-29T14:19:21;28.60;99.90
10968;DHT22;5536;49.602;10.980;2022-07-29T14:21:53;28.20;99.90
10968;DHT22;5536;49.602;10.980;2022-07-29T14:24:29;28.00;99.90
10968;DHT22;5536;49.602;10.980;2022-07-29T14:26:57;27.80;99.90
10968;DHT22;5536;49.602;10.980;2022-07-29T14:29:39;27.10;99.90
10968;DHT22;5536;49.602;10.980;2022-07-29T14:32:20;25.80;99.90
10968;DHT22;5536;49.602;10.980;2022-07-29T14:34:53;24.60;1.00
10968;DHT22;5536;49.602;10.980;2022-07-29T14:37:20;24.10;1.00
10968;DHT22;5536;49.602;10.980;2022-07-29T14:39:52;23.40;1.00
10968;DHT22;5536;49.602;10.980;2022-07-29T14:42:20;22.60;1.00
10968;DHT22;5536;49.602;10.980;2022-07-29T14:44:47;22.10;32.20
10968;DHT22;5536;49.602;10.980;2022-07-29T14:47:17;22.00;99.90
10968;DHT22;5536;49.602;10.980;2022-07-29T14:49:59;21.50;99.90
10968;DHT22;5536;49.602;10.980;2022-07-29T14:52:31;21.10;99.90
10968;DHT22;5536;49.602;10.980;2022-07-29T14:55:01;21.00;99.90
10968;DHT22;5536;49.602;10.980;2022-07-29T14:57:36;21.30;99.90
10968;DHT22;5536;49.602;10.980;2022-07-29T15:00:05;21.50;99.90
10968;DHT22;5536;49.602;10.980;2022-07-29T15:02:40;21.60;99.90
10968;DHT22;5536;49.602;10.980;2022-07-29T15:05:09;21.30;99.90
10968;DHT22;5536;49.602;10.980;2022-07-29T15:07:36;20.90;99.90
10968;DHT22;5536;49.602;10.980;2022-07-29T15:10:04;20.60;99.90
10968;DHT22;5536;49.602;10.980;2022-07-29T15:12:31;20.50;99.90
10968;DHT22;5536;49.602;10.980;2022-07-29T15:15:02;20.40;99.90
10968;DHT22;5536;49.602;10.980;2022-07-29T15:17:29;20.40;99.90
10968;DHT22;5536;49.602;10.980;2022-07-29T15:19:56;20.20;99.90
10968;DHT22;5536;49.602;10.980;2022-07-29T15:22:25;20.20;99.90
10968;DHT22;5536;49.602;10.980;2022-07-29T15:24:52;20.20;99.90
10968;DHT22;5536;49.602;10.980;2022-07-29T15:27:19;20.10;99.90
10968;DHT22;5536;49.602;10.980;2022-07-29T15:29:46;20.30;99.90
10968;DHT22;5536;49.602;10.980;2022-07-29T15:32:14;20.50;99.90
10968;DHT22;5536;49.602;10.980;2022-07-29T15:34:41;20.70;99.90
10968;DHT22;5536;49.602;10.980;2022-07-29T15:37:08;20.70;99.90
10968;DHT22;5536;49.602;10.980;2022-07-29T15:39:38;20.80;99.90
10968;DHT22;5536;49.602;10.980;2022-07-29T15:42:05;20.80;99.90
10968;DHT22;5536;49.602;10.980;2022-07-29T15:44:33;20.50;99.90
10968;DHT22;5536;49.602;10.980;2022-07-29T15:47:11;20.20;99.90
10968;DHT22;5536;49.602;10.980;2022-07-29T15:49:40;20.00;99.90
10968;DHT22;5536;49.602;10.980;2022-07-29T15:52:09;19.70;99.90
10968;DHT22;5536;49.602;10.980;2022-07-29T15:54:39;19.60;99.90
10968;DHT22;5536;49.602;10.980;2022-07-29T15:57:07;19.50;99.90
10968;DHT22;5536;49.602;10.980;2022-07-29T15:59:34;19.40;99.90
10968;DHT22;5536;49.602;10.980;2022-07-29T16:02:02;19.30;99.90